Historyczne dane pomiarowe

Dodano dane terminowe – wersja testowa.

Dane z okresu 1951-2019

Wersja bazy: 1.34 [2019-03-16, lista zmian], aktualizacja planowana na 2019-04-15

Dane meteo z obszaru Polski uzyskane na podstawie danych udostępnionych przez Instytut Meteorologii i Gospodarki Wodnej – Państwowy Instytut Badawczy.

 

Wybierz Datę:    

       

TemperaturaWilgotnośćWiatrCiśnienieOpadyŚniegCzas trwania zjawisk
 Stacja t tx tn tng RH VA  wxwx mslp ppp RRR   cm mm wxwxwxwxwxwxwx
1995-10-11 13.9 24.0 6.7--- 2.7 0.7---- 0.0------------
1995-10-12 13.7 25.7 5.6--- 0.0 1.0---- 0.0------------
1995-10-13 13.7 21.1 8.0--- 0.0 1.7---- 0.0------------
1995-10-14 11.6 14.1 8.3--- 8.0 0.0---- 0.0------------
1995-10-15 10.6 11.5 9.7--- 8.0 1.3---- 0.0------------
1995-10-16 10.3 11.4 9.6--- 8.0 0.0---- 0.0------------
1995-10-17 11.3 13.6 9.1--- 7.7 0.7---- 0.0------------
1995-10-18 11.7 17.2 6.6--- 1.0 3.3---- 0.0------------
1995-10-19 11.6 14.3 9.7--- 5.3 5.3---- 0.0------------
1995-10-20 11.4 13.6 10.1--- 8.0 6.7---- 4.2------------
1995-10-21 6.4 11.0 3.5--- 5.0 9.3---- 0.0------------
1995-10-22 2.2 7.4 -0.9--- 2.3 3.3---- 0.0------------
1995-10-23 1.8 10.0 -4.9--- 2.3 1.0---- 0.0------------
1995-10-24 2.5 12.5 -4.6--- 1.0 0.0---- 0.0------------
1995-10-25 3.8 14.7 -4.8--- 0.0 1.3---- 0.0------------
1995-10-26 3.2 11.8 -3.6--- 1.7 0.7---- 0.0------------
1995-10-27 5.1 15.1 -1.8--- 0.0 1.0---- 0.0------------
1995-10-28 7.9 15.0 -1.1--- 2.7 1.3---- 8.8------------
1995-10-29 8.5 10.8 7.4--- 8.0 1.3---- 4.5------------
1995-10-30 7.5 8.5 6.1--- 8.0 1.7---- 1.5------------
1995-10-31 6.5 8.4 2.9--- 6.3 1.3---- 0.0------------
1995-11-01 4.8 7.0 1.8--- 8.0 3.7---- 2.2------------
1995-11-02 4.4 6.2 2.5--- 6.7 4.0---- 0.0------------
1995-11-03 1.6 3.0 -0.2--- 6.7 1.3---- 3.5------------
1995-11-04 0.3 2.4 -2.1--- 8.0 4.0---- 8.5------------
1995-11-05 -3.4 -1.5 -8.1--- 5.3 4.3---- 0.0-- 8---------
1995-11-06 -2.8 -1.4 -9.1--- 7.7 3.3---- 6.0-- 8---------
1995-11-07 -0.9 -0.1 -2.6--- 8.0 8.0---- 1.1-- 12---------
1995-11-08 -2.8 -1.5 -4.7--- 8.0 7.7---- 1.2-- 16---------
1995-11-09 -4.8 -3.5 -7.1--- 6.7 2.7---- 0.0-- 18---------
164.6 ms

 

Źródłem pochodzenia danych jest Instytut Meteorologii i Gospodarki Wodnej – Państwowy Instytut Badawczy. Dane Instytutu Meteorologii i Gospodarki Wodnej – Państwowego Instytutu Badawczego zostały przetworzone.

Dane źródłowe można odnaleźć na stronie https://dane.imgw.pl